sensor_id;sensor_type;location;lat;lon;timestamp;P1;durP1;ratioP1;P2;durP2;ratioP2
69937;SDS011;57248;47.320;15.998;2023-05-17T00:01:40;6.50;;;3.38;;
69937;SDS011;57248;47.320;15.998;2023-05-17T00:04:12;7.97;;;3.47;;
69937;SDS011;57248;47.320;15.998;2023-05-17T00:06:44;6.45;;;3.15;;
69937;SDS011;57248;47.320;15.998;2023-05-17T00:09:09;6.93;;;2.83;;
69937;SDS011;57248;47.320;15.998;2023-05-17T00:11:41;6.88;;;2.97;;
69937;SDS011;57248;47.320;15.998;2023-05-17T00:14:13;6.18;;;2.75;;
69937;SDS011;57248;47.320;15.998;2023-05-17T00:16:45;5.78;;;2.80;;
69937;SDS011;57248;47.320;15.998;2023-05-17T00:19:17;5.65;;;2.50;;
69937;SDS011;57248;47.320;15.998;2023-05-17T00:21:49;5.07;;;2.23;;
69937;SDS011;57248;47.320;15.998;2023-05-17T00:24:21;4.65;;;1.95;;
69937;SDS011;57248;47.320;15.998;2023-05-17T00:26:53;5.93;;;2.10;;
69937;SDS011;57248;47.320;15.998;2023-05-17T00:29:25;5.63;;;2.40;;
69937;SDS011;57248;47.320;15.998;2023-05-17T00:31:57;5.97;;;2.25;;
69937;SDS011;57248;47.320;15.998;2023-05-17T00:34:22;5.17;;;2.47;;
69937;SDS011;57248;47.320;15.998;2023-05-17T00:36:54;7.38;;;2.80;;
69937;SDS011;57248;47.320;15.998;2023-05-17T00:39:26;5.60;;;2.30;;
69937;SDS011;57248;47.320;15.998;2023-05-17T00:41:51;4.63;;;2.20;;
69937;SDS011;57248;47.320;15.998;2023-05-17T00:44:29;6.80;;;2.73;;
69937;SDS011;57248;47.320;15.998;2023-05-17T00:47:02;8.27;;;2.33;;
69937;SDS011;57248;47.320;15.998;2023-05-17T00:49:34;5.55;;;2.38;;
69937;SDS011;57248;47.320;15.998;2023-05-17T00:52:06;5.35;;;2.30;;
69937;SDS011;57248;47.320;15.998;2023-05-17T00:54:38;7.03;;;2.28;;
69937;SDS011;57248;47.320;15.998;2023-05-17T00:57:11;5.30;;;2.40;;
69937;SDS011;57248;47.320;15.998;2023-05-17T00:59:43;5.30;;;2.40;;
69937;SDS011;57248;47.320;15.998;2023-05-17T01:02:16;7.10;;;2.25;;
69937;SDS011;57248;47.320;15.998;2023-05-17T01:04:48;5.20;;;2.38;;
69937;SDS011;57248;47.320;15.998;2023-05-17T01:07:21;5.38;;;2.33;;
69937;SDS011;57248;47.320;15.998;2023-05-17T01:09:53;5.50;;;2.30;;
69937;SDS011;57248;47.320;15.998;2023-05-17T01:15:26;5.57;;;2.60;;
69937;SDS011;57248;47.320;15.998;2023-05-17T01:21:00;5.18;;;2.50;;
69937;SDS011;57248;47.320;15.998;2023-05-17T01:23:47;5.80;;;2.63;;
69937;SDS011;57248;47.320;15.998;2023-05-17T01:26:39;5.53;;;2.67;;
69937;SDS011;57248;47.320;15.998;2023-05-17T01:29:15;5.47;;;2.58;;
69937;SDS011;57248;47.320;15.998;2023-05-17T01:31:49;6.32;;;2.88;;
69937;SDS011;57248;47.320;15.998;2023-05-17T01:34:28;5.07;;;2.40;;
69937;SDS011;57248;47.320;15.998;2023-05-17T01:37:02;5.13;;;2.13;;
69937;SDS011;57248;47.320;15.998;2023-05-17T01:39:34;6.32;;;2.35;;
69937;SDS011;57248;47.320;15.998;2023-05-17T01:42:16;5.50;;;2.60;;
69937;SDS011;57248;47.320;15.998;2023-05-17T01:45:34;4.80;;;2.13;;
69937;SDS011;57248;47.320;15.998;2023-05-17T01:51:05;4.90;;;2.30;;
69937;SDS011;57248;47.320;15.998;2023-05-17T01:53:42;5.35;;;2.40;;
69937;SDS011;57248;47.320;15.998;2023-05-17T01:56:19;4.95;;;2.50;;
69937;SDS011;57248;47.320;15.998;2023-05-17T01:58:57;5.50;;;2.33;;
69937;SDS011;57248;47.320;15.998;2023-05-17T02:01:30;5.65;;;2.47;;
69937;SDS011;57248;47.320;15.998;2023-05-17T02:04:03;5.77;;;2.40;;
69937;SDS011;57248;47.320;15.998;2023-05-17T02:06:35;8.35;;;3.30;;
69937;SDS011;57248;47.320;15.998;2023-05-17T02:09:07;6.15;;;2.88;;
69937;SDS011;57248;47.320;15.998;2023-05-17T02:11:39;5.22;;;2.70;;
69937;SDS011;57248;47.320;15.998;2023-05-17T02:14:11;5.35;;;2.40;;
69937;SDS011;57248;47.320;15.998;2023-05-17T02:16:43;5.20;;;2.27;;
69937;SDS011;57248;47.320;15.998;2023-05-17T02:19:15;5.60;;;2.20;;
69937;SDS011;57248;47.320;15.998;2023-05-17T02:21:47;6.65;;;2.67;;
69937;SDS011;57248;47.320;15.998;2023-05-17T02:24:19;6.15;;;2.63;;
69937;SDS011;57248;47.320;15.998;2023-05-17T02:26:51;5.35;;;2.40;;
69937;SDS011;57248;47.320;15.998;2023-05-17T02:29:23;6.73;;;2.40;;
69937;SDS011;57248;47.320;15.998;2023-05-17T02:31:55;5.05;;;2.22;;
69937;SDS011;57248;47.320;15.998;2023-05-17T02:34:20;5.70;;;2.70;;
69937;SDS011;57248;47.320;15.998;2023-05-17T02:36:52;5.65;;;2.08;;
69937;SDS011;57248;47.320;15.998;2023-05-17T02:39:24;6.20;;;2.40;;
69937;SDS011;57248;47.320;15.998;2023-05-17T02:41:56;5.20;;;2.35;;
69937;SDS011;57248;47.320;15.998;2023-05-17T02:44:35;5.85;;;2.78;;
69937;SDS011;57248;47.320;15.998;2023-05-17T02:47:07;5.43;;;2.07;;
69937;SDS011;57248;47.320;15.998;2023-05-17T02:49:39;5.15;;;2.40;;
69937;SDS011;57248;47.320;15.998;2023-05-17T02:52:11;5.72;;;3.28;;
69937;SDS011;57248;47.320;15.998;2023-05-17T02:54:43;6.60;;;2.80;;
69937;SDS011;57248;47.320;15.998;2023-05-17T02:57:15;7.60;;;2.35;;
69937;SDS011;57248;47.320;15.998;2023-05-17T02:59:47;6.27;;;2.97;;
69937;SDS011;57248;47.320;15.998;2023-05-17T03:02:19;6.25;;;2.75;;
69937;SDS011;57248;47.320;15.998;2023-05-17T03:04:51;6.20;;;2.80;;
69937;SDS011;57248;47.320;15.998;2023-05-17T03:07:23;4.80;;;2.05;;
69937;SDS011;57248;47.320;15.998;2023-05-17T03:09:57;4.65;;;2.03;;
69937;SDS011;57248;47.320;15.998;2023-05-17T03:12:24;5.93;;;2.10;;
69937;SDS011;57248;47.320;15.998;2023-05-17T03:14:56;7.50;;;2.47;;
69937;SDS011;57248;47.320;15.998;2023-05-17T03:17:28;6.35;;;2.42;;
69937;SDS011;57248;47.320;15.998;2023-05-17T03:20:00;5.07;;;2.08;;
69937;SDS011;57248;47.320;15.998;2023-05-17T03:22:33;4.78;;;1.63;;
69937;SDS011;57248;47.320;15.998;2023-05-17T03:25:07;3.70;;;1.33;;
69937;SDS011;57248;47.320;15.998;2023-05-17T03:27:39;4.25;;;1.75;;
69937;SDS011;57248;47.320;15.998;2023-05-17T03:30:12;5.70;;;1.98;;
69937;SDS011;57248;47.320;15.998;2023-05-17T03:32:44;4.10;;;1.90;;
69937;SDS011;57248;47.320;15.998;2023-05-17T03:35:17;4.72;;;2.05;;
69937;SDS011;57248;47.320;15.998;2023-05-17T03:37:53;5.10;;;2.47;;
69937;SDS011;57248;47.320;15.998;2023-05-17T03:40:25;4.97;;;1.90;;
69937;SDS011;57248;47.320;15.998;2023-05-17T03:42:58;5.35;;;2.30;;
69937;SDS011;57248;47.320;15.998;2023-05-17T03:45:30;4.53;;;2.10;;
69937;SDS011;57248;47.320;15.998;2023-05-17T03:48:10;6.57;;;2.78;;
69937;SDS011;57248;47.320;15.998;2023-05-17T03:50:42;5.07;;;1.90;;
69937;SDS011;57248;47.320;15.998;2023-05-17T03:53:14;4.68;;;2.03;;
69937;SDS011;57248;47.320;15.998;2023-05-17T03:55:46;4.53;;;2.00;;
69937;SDS011;57248;47.320;15.998;2023-05-17T03:58:18;4.75;;;1.80;;
69937;SDS011;57248;47.320;15.998;2023-05-17T04:00:50;4.70;;;1.85;;
69937;SDS011;57248;47.320;15.998;2023-05-17T04:03:23;4.07;;;1.67;;
69937;SDS011;57248;47.320;15.998;2023-05-17T04:06:04;4.40;;;1.95;;
69937;SDS011;57248;47.320;15.998;2023-05-17T04:08:37;4.90;;;2.03;;
69937;SDS011;57248;47.320;15.998;2023-05-17T04:11:09;6.03;;;2.13;;
69937;SDS011;57248;47.320;15.998;2023-05-17T04:13:43;5.78;;;2.03;;
69937;SDS011;57248;47.320;15.998;2023-05-17T04:16:15;5.23;;;2.13;;
69937;SDS011;57248;47.320;15.998;2023-05-17T04:18:47;4.93;;;2.03;;
69937;SDS011;57248;47.320;15.998;2023-05-17T04:21:17;4.18;;;2.00;;
69937;SDS011;57248;47.320;15.998;2023-05-17T04:23:50;4.50;;;1.73;;
69937;SDS011;57248;47.320;15.998;2023-05-17T04:26:22;4.55;;;1.58;;
69937;SDS011;57248;47.320;15.998;2023-05-17T04:28:54;7.10;;;3.60;;
69937;SDS011;57248;47.320;15.998;2023-05-17T04:31:27;4.22;;;1.80;;
69937;SDS011;57248;47.320;15.998;2023-05-17T04:33:59;4.78;;;2.20;;
69937;SDS011;57248;47.320;15.998;2023-05-17T04:36:31;6.53;;;1.95;;
69937;SDS011;57248;47.320;15.998;2023-05-17T04:39:03;4.68;;;1.88;;
69937;SDS011;57248;47.320;15.998;2023-05-17T04:41:36;4.90;;;2.37;;
69937;SDS011;57248;47.320;15.998;2023-05-17T04:44:06;4.97;;;2.40;;
69937;SDS011;57248;47.320;15.998;2023-05-17T04:46:47;5.82;;;2.33;;
69937;SDS011;57248;47.320;15.998;2023-05-17T04:49:19;4.75;;;2.22;;
69937;SDS011;57248;47.320;15.998;2023-05-17T04:51:53;21.05;;;6.43;;
69937;SDS011;57248;47.320;15.998;2023-05-17T04:54:25;7.43;;;1.57;;
69937;SDS011;57248;47.320;15.998;2023-05-17T04:56:58;5.25;;;2.17;;
69937;SDS011;57248;47.320;15.998;2023-05-17T04:59:53;4.05;;;1.10;;
69937;SDS011;57248;47.320;15.998;2023-05-17T05:02:25;3.03;;;1.08;;
69937;SDS011;57248;47.320;15.998;2023-05-17T05:04:58;3.78;;;1.33;;
69937;SDS011;57248;47.320;15.998;2023-05-17T05:07:31;4.17;;;1.00;;
69937;SDS011;57248;47.320;15.998;2023-05-17T05:10:05;3.60;;;1.20;;
69937;SDS011;57248;47.320;15.998;2023-05-17T05:12:39;3.75;;;1.33;;
69937;SDS011;57248;47.320;15.998;2023-05-17T05:15:11;2.17;;;0.57;;
69937;SDS011;57248;47.320;15.998;2023-05-17T05:17:49;3.45;;;1.10;;
69937;SDS011;57248;47.320;15.998;2023-05-17T05:20:22;3.13;;;1.30;;
69937;SDS011;57248;47.320;15.998;2023-05-17T05:22:55;4.53;;;1.55;;
69937;SDS011;57248;47.320;15.998;2023-05-17T05:25:29;3.75;;;1.20;;
69937;SDS011;57248;47.320;15.998;2023-05-17T05:28:01;2.85;;;0.80;;
69937;SDS011;57248;47.320;15.998;2023-05-17T05:30:36;2.53;;;0.70;;
69937;SDS011;57248;47.320;15.998;2023-05-17T05:33:09;2.87;;;0.70;;
69937;SDS011;57248;47.320;15.998;2023-05-17T05:35:41;2.80;;;0.90;;
69937;SDS011;57248;47.320;15.998;2023-05-17T05:38:14;3.53;;;0.70;;
69937;SDS011;57248;47.320;15.998;2023-05-17T05:40:46;2.70;;;0.50;;
69937;SDS011;57248;47.320;15.998;2023-05-17T05:43:21;1.35;;;0.25;;
69937;SDS011;57248;47.320;15.998;2023-05-17T05:45:53;5.07;;;1.03;;
69937;SDS011;57248;47.320;15.998;2023-05-17T05:48:33;6.57;;;2.08;;
69937;SDS011;57248;47.320;15.998;2023-05-17T05:51:05;4.78;;;1.80;;
69937;SDS011;57248;47.320;15.998;2023-05-17T05:53:40;2.72;;;0.93;;
69937;SDS011;57248;47.320;15.998;2023-05-17T05:56:06;1.70;;;0.83;;
69937;SDS011;57248;47.320;15.998;2023-05-17T05:58:40;0.20;;;0.00;;
69937;SDS011;57248;47.320;15.998;2023-05-17T06:01:12;0.50;;;0.10;;
69937;SDS011;57248;47.320;15.998;2023-05-17T06:03:44;0.60;;;0.00;;
69937;SDS011;57248;47.320;15.998;2023-05-17T06:06:09;0.60;;;0.00;;
69937;SDS011;57248;47.320;15.998;2023-05-17T06:08:42;0.40;;;0.00;;
69937;SDS011;57248;47.320;15.998;2023-05-17T06:11:17;0.27;;;0.00;;
69937;SDS011;57248;47.320;15.998;2023-05-17T06:13:51;0.10;;;0.00;;
69937;SDS011;57248;47.320;15.998;2023-05-17T06:16:31;0.40;;;0.00;;
69937;SDS011;57248;47.320;15.998;2023-05-17T06:19:03;0.80;;;0.00;;
69937;SDS011;57248;47.320;15.998;2023-05-17T06:21:35;0.30;;;0.00;;
69937;SDS011;57248;47.320;15.998;2023-05-17T06:24:00;1.73;;;0.00;;
69937;SDS011;57248;47.320;15.998;2023-05-17T06:26:33;0.17;;;0.00;;
69937;SDS011;57248;47.320;15.998;2023-05-17T06:29:05;1.87;;;0.10;;
69937;SDS011;57248;47.320;15.998;2023-05-17T06:31:37;0.20;;;0.00;;
69937;SDS011;57248;47.320;15.998;2023-05-17T06:34:02;0.50;;;0.00;;
69937;SDS011;57248;47.320;15.998;2023-05-17T06:36:34;0.50;;;0.00;;
69937;SDS011;57248;47.320;15.998;2023-05-17T06:38:59;0.30;;;0.00;;
69937;SDS011;57248;47.320;15.998;2023-05-17T06:41:32;0.47;;;0.00;;
69937;SDS011;57248;47.320;15.998;2023-05-17T06:44:05;0.30;;;0.00;;
69937;SDS011;57248;47.320;15.998;2023-05-17T06:46:51;0.30;;;0.00;;
69937;SDS011;57248;47.320;15.998;2023-05-17T06:49:23;0.80;;;0.00;;
69937;SDS011;57248;47.320;15.998;2023-05-17T06:51:55;0.90;;;0.10;;
69937;SDS011;57248;47.320;15.998;2023-05-17T06:54:33;0.40;;;0.10;;
69937;SDS011;57248;47.320;15.998;2023-05-17T06:57:05;0.47;;;0.10;;
69937;SDS011;57248;47.320;15.998;2023-05-17T06:59:30;1.23;;;0.10;;
69937;SDS011;57248;47.320;15.998;2023-05-17T07:02:02;2.33;;;0.43;;
69937;SDS011;57248;47.320;15.998;2023-05-17T07:04:34;0.50;;;0.10;;
69937;SDS011;57248;47.320;15.998;2023-05-17T07:07:07;0.30;;;0.10;;
69937;SDS011;57248;47.320;15.998;2023-05-17T07:09:39;0.50;;;0.10;;
69937;SDS011;57248;47.320;15.998;2023-05-17T07:12:13;2.63;;;0.10;;
69937;SDS011;57248;47.320;15.998;2023-05-17T07:14:45;1.08;;;0.10;;
69937;SDS011;57248;47.320;15.998;2023-05-17T07:17:17;0.35;;;0.10;;
69937;SDS011;57248;47.320;15.998;2023-05-17T07:19:49;0.38;;;0.10;;
69937;SDS011;57248;47.320;15.998;2023-05-17T07:22:22;0.70;;;0.20;;
69937;SDS011;57248;47.320;15.998;2023-05-17T07:24:54;0.37;;;0.10;;
69937;SDS011;57248;47.320;15.998;2023-05-17T07:27:27;0.50;;;0.10;;
69937;SDS011;57248;47.320;15.998;2023-05-17T07:29:52;0.77;;;0.25;;
69937;SDS011;57248;47.320;15.998;2023-05-17T07:32:25;1.23;;;0.10;;
69937;SDS011;57248;47.320;15.998;2023-05-17T07:34:57;0.40;;;0.10;;
69937;SDS011;57248;47.320;15.998;2023-05-17T07:37:23;0.70;;;0.10;;
69937;SDS011;57248;47.320;15.998;2023-05-17T07:39:55;0.30;;;0.10;;
69937;SDS011;57248;47.320;15.998;2023-05-17T07:42:27;0.40;;;0.10;;
69937;SDS011;57248;47.320;15.998;2023-05-17T07:44:59;1.25;;;0.10;;
69937;SDS011;57248;47.320;15.998;2023-05-17T07:47:38;0.55;;;0.00;;
69937;SDS011;57248;47.320;15.998;2023-05-17T07:50:10;0.20;;;0.00;;
69937;SDS011;57248;47.320;15.998;2023-05-17T07:52:36;0.60;;;0.10;;
69937;SDS011;57248;47.320;15.998;2023-05-17T07:55:08;0.20;;;0.00;;
69937;SDS011;57248;47.320;15.998;2023-05-17T07:57:41;0.20;;;0.00;;
69937;SDS011;57248;47.320;15.998;2023-05-17T08:00:06;0.20;;;0.00;;
69937;SDS011;57248;47.320;15.998;2023-05-17T08:02:39;0.27;;;0.00;;
69937;SDS011;57248;47.320;15.998;2023-05-17T08:05:11;0.57;;;0.00;;
69937;SDS011;57248;47.320;15.998;2023-05-17T08:07:43;0.30;;;0.00;;
69937;SDS011;57248;47.320;15.998;2023-05-17T08:10:15;0.30;;;0.00;;
69937;SDS011;57248;47.320;15.998;2023-05-17T08:12:48;0.93;;;0.10;;
69937;SDS011;57248;47.320;15.998;2023-05-17T08:15:20;0.30;;;0.10;;
69937;SDS011;57248;47.320;15.998;2023-05-17T08:17:53;0.20;;;0.00;;
69937;SDS011;57248;47.320;15.998;2023-05-17T08:20:25;0.63;;;0.10;;
69937;SDS011;57248;47.320;15.998;2023-05-17T08:22:50;0.40;;;0.07;;
69937;SDS011;57248;47.320;15.998;2023-05-17T08:25:22;1.08;;;0.10;;
69937;SDS011;57248;47.320;15.998;2023-05-17T08:27:54;0.28;;;0.00;;
69937;SDS011;57248;47.320;15.998;2023-05-17T08:30:26;0.20;;;0.00;;
69937;SDS011;57248;47.320;15.998;2023-05-17T08:32:58;0.53;;;0.00;;
69937;SDS011;57248;47.320;15.998;2023-05-17T08:35:31;0.20;;;0.00;;
69937;SDS011;57248;47.320;15.998;2023-05-17T08:38:03;0.28;;;0.00;;
69937;SDS011;57248;47.320;15.998;2023-05-17T08:40:35;0.20;;;0.00;;
69937;SDS011;57248;47.320;15.998;2023-05-17T08:43:07;0.30;;;0.00;;
69937;SDS011;57248;47.320;15.998;2023-05-17T08:45:49;0.43;;;0.00;;
69937;SDS011;57248;47.320;15.998;2023-05-17T08:48:23;0.20;;;0.00;;
69937;SDS011;57248;47.320;15.998;2023-05-17T08:51:01;0.20;;;0.00;;
69937;SDS011;57248;47.320;15.998;2023-05-17T08:53:34;0.32;;;0.00;;
69937;SDS011;57248;47.320;15.998;2023-05-17T08:56:06;0.30;;;0.10;;
69937;SDS011;57248;47.320;15.998;2023-05-17T08:58:40;0.37;;;0.00;;
69937;SDS011;57248;47.320;15.998;2023-05-17T09:01:14;0.30;;;0.10;;
69937;SDS011;57248;47.320;15.998;2023-05-17T09:03:41;0.45;;;0.10;;
69937;SDS011;57248;47.320;15.998;2023-05-17T09:06:21;0.38;;;0.10;;
69937;SDS011;57248;47.320;15.998;2023-05-17T09:08:54;0.35;;;0.10;;
69937;SDS011;57248;47.320;15.998;2023-05-17T09:11:27;0.67;;;0.10;;
69937;SDS011;57248;47.320;15.998;2023-05-17T09:14:13;0.82;;;0.10;;
69937;SDS011;57248;47.320;15.998;2023-05-17T09:16:50;1.05;;;0.10;;
69937;SDS011;57248;47.320;15.998;2023-05-17T09:19:29;0.40;;;0.10;;
69937;SDS011;57248;47.320;15.998;2023-05-17T09:22:01;0.60;;;0.10;;
69937;SDS011;57248;47.320;15.998;2023-05-17T09:24:27;0.37;;;0.10;;
69937;SDS011;57248;47.320;15.998;2023-05-17T09:27:04;0.77;;;0.10;;
69937;SDS011;57248;47.320;15.998;2023-05-17T09:29:36;0.68;;;0.10;;
69937;SDS011;57248;47.320;15.998;2023-05-17T09:32:17;0.40;;;0.10;;
69937;SDS011;57248;47.320;15.998;2023-05-17T09:34:55;0.50;;;0.10;;
69937;SDS011;57248;47.320;15.998;2023-05-17T09:37:31;0.67;;;0.17;;
69937;SDS011;57248;47.320;15.998;2023-05-17T09:40:05;0.47;;;0.10;;
69937;SDS011;57248;47.320;15.998;2023-05-17T09:42:39;0.30;;;0.10;;
69937;SDS011;57248;47.320;15.998;2023-05-17T09:45:22;0.47;;;0.10;;
69937;SDS011;57248;47.320;15.998;2023-05-17T09:50:46;0.30;;;0.10;;
69937;SDS011;57248;47.320;15.998;2023-05-17T09:56:00;0.60;;;0.10;;
69937;SDS011;57248;47.320;15.998;2023-05-17T09:58:35;0.35;;;0.10;;
69937;SDS011;57248;47.320;15.998;2023-05-17T10:01:08;0.20;;;0.10;;
69937;SDS011;57248;47.320;15.998;2023-05-17T10:03:42;0.50;;;0.10;;
69937;SDS011;57248;47.320;15.998;2023-05-17T10:06:08;0.60;;;0.10;;
69937;SDS011;57248;47.320;15.998;2023-05-17T10:08:42;0.63;;;0.10;;
69937;SDS011;57248;47.320;15.998;2023-05-17T10:11:17;0.27;;;0.10;;
69937;SDS011;57248;47.320;15.998;2023-05-17T10:17:04;4.00;;;0.10;;
69937;SDS011;57248;47.320;15.998;2023-05-17T10:19:39;0.30;;;0.10;;
69937;SDS011;57248;47.320;15.998;2023-05-17T10:22:12;1.27;;;0.40;;
69937;SDS011;57248;47.320;15.998;2023-05-17T10:24:44;0.30;;;0.10;;
69937;SDS011;57248;47.320;15.998;2023-05-17T10:27:17;1.60;;;0.10;;
69937;SDS011;57248;47.320;15.998;2023-05-17T10:29:49;0.40;;;0.10;;
69937;SDS011;57248;47.320;15.998;2023-05-17T10:32:23;0.47;;;0.10;;
69937;SDS011;57248;47.320;15.998;2023-05-17T10:34:51;0.45;;;0.10;;
69937;SDS011;57248;47.320;15.998;2023-05-17T10:37:25;0.40;;;0.10;;
69937;SDS011;57248;47.320;15.998;2023-05-17T10:40:00;0.70;;;0.10;;
69937;SDS011;57248;47.320;15.998;2023-05-17T10:42:32;0.30;;;0.08;;
69937;SDS011;57248;47.320;15.998;2023-05-17T10:45:12;1.67;;;0.10;;
69937;SDS011;57248;47.320;15.998;2023-05-17T10:47:45;0.30;;;0.10;;
69937;SDS011;57248;47.320;15.998;2023-05-17T10:50:24;0.20;;;0.00;;
69937;SDS011;57248;47.320;15.998;2023-05-17T10:52:57;0.30;;;0.10;;
69937;SDS011;57248;47.320;15.998;2023-05-17T10:55:40;0.45;;;0.10;;
69937;SDS011;57248;47.320;15.998;2023-05-17T10:58:14;0.47;;;0.10;;
69937;SDS011;57248;47.320;15.998;2023-05-17T11:00:48;0.28;;;0.10;;
69937;SDS011;57248;47.320;15.998;2023-05-17T11:03:25;0.40;;;0.10;;
69937;SDS011;57248;47.320;15.998;2023-05-17T11:06:17;0.73;;;0.10;;
69937;SDS011;57248;47.320;15.998;2023-05-17T11:09:04;0.45;;;0.10;;
69937;SDS011;57248;47.320;15.998;2023-05-17T11:11:45;0.30;;;0.10;;
69937;SDS011;57248;47.320;15.998;2023-05-17T11:17:19;0.40;;;0.10;;
69937;SDS011;57248;47.320;15.998;2023-05-17T11:19:56;0.22;;;0.03;;
69937;SDS011;57248;47.320;15.998;2023-05-17T11:22:36;0.82;;;0.10;;
69937;SDS011;57248;47.320;15.998;2023-05-17T11:25:20;0.40;;;0.10;;
69937;SDS011;57248;47.320;15.998;2023-05-17T11:27:52;0.30;;;0.10;;
69937;SDS011;57248;47.320;15.998;2023-05-17T11:30:26;0.97;;;0.10;;
69937;SDS011;57248;47.320;15.998;2023-05-17T11:33:02;0.40;;;0.10;;
69937;SDS011;57248;47.320;15.998;2023-05-17T11:35:37;0.30;;;0.00;;
69937;SDS011;57248;47.320;15.998;2023-05-17T11:40:55;0.50;;;0.05;;
69937;SDS011;57248;47.320;15.998;2023-05-17T11:43:35;0.30;;;0.00;;
69937;SDS011;57248;47.320;15.998;2023-05-17T11:46:07;0.22;;;0.00;;
69937;SDS011;57248;47.320;15.998;2023-05-17T11:48:58;1.75;;;0.10;;
69937;SDS011;57248;47.320;15.998;2023-05-17T11:51:32;0.30;;;0.10;;
69937;SDS011;57248;47.320;15.998;2023-05-17T11:54:04;0.28;;;0.00;;
69937;SDS011;57248;47.320;15.998;2023-05-17T11:56:37;0.70;;;0.00;;
69937;SDS011;57248;47.320;15.998;2023-05-17T11:59:18;0.40;;;0.00;;
69937;SDS011;57248;47.320;15.998;2023-05-17T12:01:51;0.40;;;0.00;;
69937;SDS011;57248;47.320;15.998;2023-05-17T12:04:23;1.10;;;0.00;;
69937;SDS011;57248;47.320;15.998;2023-05-17T12:06:57;0.50;;;0.00;;
69937;SDS011;57248;47.320;15.998;2023-05-17T12:09:29;0.40;;;0.00;;
69937;SDS011;57248;47.320;15.998;2023-05-17T12:12:02;0.20;;;0.00;;
69937;SDS011;57248;47.320;15.998;2023-05-17T12:14:28;0.25;;;0.00;;
69937;SDS011;57248;47.320;15.998;2023-05-17T12:17:02;0.22;;;0.00;;
69937;SDS011;57248;47.320;15.998;2023-05-17T12:19:38;2.15;;;0.00;;
69937;SDS011;57248;47.320;15.998;2023-05-17T12:22:11;0.20;;;0.00;;
69937;SDS011;57248;47.320;15.998;2023-05-17T12:24:44;1.85;;;0.10;;
69937;SDS011;57248;47.320;15.998;2023-05-17T12:27:24;0.82;;;0.00;;
69937;SDS011;57248;47.320;15.998;2023-05-17T12:29:57;1.38;;;0.10;;
69937;SDS011;57248;47.320;15.998;2023-05-17T12:32:29;0.70;;;0.00;;
69937;SDS011;57248;47.320;15.998;2023-05-17T12:35:01;0.57;;;0.10;;
69937;SDS011;57248;47.320;15.998;2023-05-17T12:37:26;0.73;;;0.10;;
69937;SDS011;57248;47.320;15.998;2023-05-17T12:39:59;1.38;;;0.10;;
69937;SDS011;57248;47.320;15.998;2023-05-17T12:42:35;0.37;;;0.00;;
69937;SDS011;57248;47.320;15.998;2023-05-17T12:45:07;0.88;;;0.45;;
69937;SDS011;57248;47.320;15.998;2023-05-17T12:47:43;1.88;;;0.00;;
69937;SDS011;57248;47.320;15.998;2023-05-17T12:50:24;1.25;;;0.00;;
69937;SDS011;57248;47.320;15.998;2023-05-17T12:52:57;0.85;;;0.00;;
69937;SDS011;57248;47.320;15.998;2023-05-17T12:55:34;0.30;;;0.00;;
69937;SDS011;57248;47.320;15.998;2023-05-17T12:58:08;0.90;;;0.00;;
69937;SDS011;57248;47.320;15.998;2023-05-17T13:00:54;0.60;;;0.10;;
69937;SDS011;57248;47.320;15.998;2023-05-17T13:03:30;1.85;;;0.10;;
69937;SDS011;57248;47.320;15.998;2023-05-17T13:06:05;3.90;;;1.08;;
69937;SDS011;57248;47.320;15.998;2023-05-17T13:08:40;1.37;;;0.20;;
69937;SDS011;57248;47.320;15.998;2023-05-17T13:11:13;2.15;;;0.40;;
69937;SDS011;57248;47.320;15.998;2023-05-17T13:13:45;4.43;;;1.00;;
69937;SDS011;57248;47.320;15.998;2023-05-17T13:16:26;1.42;;;0.20;;
69937;SDS011;57248;47.320;15.998;2023-05-17T13:19:00;0.63;;;0.10;;
69937;SDS011;57248;47.320;15.998;2023-05-17T13:21:32;0.80;;;0.10;;
69937;SDS011;57248;47.320;15.998;2023-05-17T13:24:04;2.05;;;0.52;;
69937;SDS011;57248;47.320;15.998;2023-05-17T13:26:36;1.35;;;0.10;;
69937;SDS011;57248;47.320;15.998;2023-05-17T13:29:08;1.52;;;0.13;;
69937;SDS011;57248;47.320;15.998;2023-05-17T13:31:40;1.48;;;0.30;;
69937;SDS011;57248;47.320;15.998;2023-05-17T13:34:13;1.57;;;0.20;;
69937;SDS011;57248;47.320;15.998;2023-05-17T13:36:47;1.60;;;0.10;;
69937;SDS011;57248;47.320;15.998;2023-05-17T13:39:20;1.15;;;0.10;;
69937;SDS011;57248;47.320;15.998;2023-05-17T13:41:52;0.50;;;0.00;;
69937;SDS011;57248;47.320;15.998;2023-05-17T13:44:24;0.63;;;0.10;;
69937;SDS011;57248;47.320;15.998;2023-05-17T13:47:04;1.00;;;0.10;;
69937;SDS011;57248;47.320;15.998;2023-05-17T13:49:38;0.68;;;0.00;;
69937;SDS011;57248;47.320;15.998;2023-05-17T13:52:11;0.85;;;0.10;;
69937;SDS011;57248;47.320;15.998;2023-05-17T13:54:44;2.53;;;0.10;;
69937;SDS011;57248;47.320;15.998;2023-05-17T13:57:18;1.10;;;0.10;;
69937;SDS011;57248;47.320;15.998;2023-05-17T13:59:50;2.23;;;0.10;;
69937;SDS011;57248;47.320;15.998;2023-05-17T14:02:22;0.52;;;0.10;;
69937;SDS011;57248;47.320;15.998;2023-05-17T14:04:54;0.80;;;0.10;;
69937;SDS011;57248;47.320;15.998;2023-05-17T14:07:26;1.25;;;0.10;;
69937;SDS011;57248;47.320;15.998;2023-05-17T14:09:59;1.55;;;0.10;;
69937;SDS011;57248;47.320;15.998;2023-05-17T14:12:31;0.60;;;0.00;;
69937;SDS011;57248;47.320;15.998;2023-05-17T14:15:04;0.70;;;0.00;;
69937;SDS011;57248;47.320;15.998;2023-05-17T14:17:38;0.80;;;0.10;;
69937;SDS011;57248;47.320;15.998;2023-05-17T14:20:10;2.03;;;0.57;;
69937;SDS011;57248;47.320;15.998;2023-05-17T14:22:44;1.30;;;0.10;;
69937;SDS011;57248;47.320;15.998;2023-05-17T14:25:16;0.47;;;0.00;;
69937;SDS011;57248;47.320;15.998;2023-05-17T14:27:48;1.20;;;0.10;;
69937;SDS011;57248;47.320;15.998;2023-05-17T14:30:20;0.82;;;0.00;;
69937;SDS011;57248;47.320;15.998;2023-05-17T14:32:52;1.13;;;0.10;;
69937;SDS011;57248;47.320;15.998;2023-05-17T14:35:25;0.85;;;0.00;;
69937;SDS011;57248;47.320;15.998;2023-05-17T14:37:59;0.70;;;0.00;;
69937;SDS011;57248;47.320;15.998;2023-05-17T14:40:31;0.40;;;0.00;;
69937;SDS011;57248;47.320;15.998;2023-05-17T14:43:03;0.98;;;0.10;;
69937;SDS011;57248;47.320;15.998;2023-05-17T14:45:35;0.75;;;0.10;;
69937;SDS011;57248;47.320;15.998;2023-05-17T14:48:07;1.27;;;0.10;;
69937;SDS011;57248;47.320;15.998;2023-05-17T14:50:46;0.93;;;0.10;;
69937;SDS011;57248;47.320;15.998;2023-05-17T14:53:11;2.75;;;0.20;;
69937;SDS011;57248;47.320;15.998;2023-05-17T14:55:44;1.00;;;0.10;;
69937;SDS011;57248;47.320;15.998;2023-05-17T14:58:16;1.40;;;0.20;;
69937;SDS011;57248;47.320;15.998;2023-05-17T15:00:49;6.28;;;1.42;;
69937;SDS011;57248;47.320;15.998;2023-05-17T15:03:24;4.32;;;0.70;;
69937;SDS011;57248;47.320;15.998;2023-05-17T15:05:56;4.38;;;1.80;;
69937;SDS011;57248;47.320;15.998;2023-05-17T15:08:22;2.33;;;0.73;;
69937;SDS011;57248;47.320;15.998;2023-05-17T15:10:54;1.52;;;0.47;;
69937;SDS011;57248;47.320;15.998;2023-05-17T15:13:29;2.15;;;0.30;;
69937;SDS011;57248;47.320;15.998;2023-05-17T15:16:01;1.33;;;0.10;;
69937;SDS011;57248;47.320;15.998;2023-05-17T15:18:34;1.92;;;0.15;;
69937;SDS011;57248;47.320;15.998;2023-05-17T15:21:07;1.30;;;0.20;;
69937;SDS011;57248;47.320;15.998;2023-05-17T15:23:40;1.52;;;0.30;;
69937;SDS011;57248;47.320;15.998;2023-05-17T15:26:12;1.15;;;0.20;;
69937;SDS011;57248;47.320;15.998;2023-05-17T15:28:45;1.42;;;0.20;;
69937;SDS011;57248;47.320;15.998;2023-05-17T15:31:20;1.20;;;0.15;;
69937;SDS011;57248;47.320;15.998;2023-05-17T15:33:53;1.53;;;0.20;;